sensor_id;sensor_type;location;lat;lon;timestamp;temperature;humidity
26107;DHT22;13866;50.748;12.630;2023-05-07T00:00:18;9.70;99.90
26107;DHT22;13866;50.748;12.630;2023-05-07T00:02:45;9.60;99.90
26107;DHT22;13866;50.748;12.630;2023-05-07T00:05:10;9.60;99.90
26107;DHT22;13866;50.748;12.630;2023-05-07T00:07:36;9.50;99.90
26107;DHT22;13866;50.748;12.630;2023-05-07T00:10:02;9.50;99.90
26107;DHT22;13866;50.748;12.630;2023-05-07T00:12:27;9.50;99.90
26107;DHT22;13866;50.748;12.630;2023-05-07T00:14:55;9.50;99.90
26107;DHT22;13866;50.748;12.630;2023-05-07T00:17:20;9.50;99.90
26107;DHT22;13866;50.748;12.630;2023-05-07T00:19:46;9.60;99.90
26107;DHT22;13866;50.748;12.630;2023-05-07T00:22:11;9.50;99.90
26107;DHT22;13866;50.748;12.630;2023-05-07T00:24:37;9.60;99.90
26107;DHT22;13866;50.748;12.630;2023-05-07T00:27:02;9.50;99.90
26107;DHT22;13866;50.748;12.630;2023-05-07T00:29:28;9.50;99.90
26107;DHT22;13866;50.748;12.630;2023-05-07T00:31:53;9.50;99.90
26107;DHT22;13866;50.748;12.630;2023-05-07T00:34:20;9.50;99.90
26107;DHT22;13866;50.748;12.630;2023-05-07T00:36:45;9.50;99.90
26107;DHT22;13866;50.748;12.630;2023-05-07T00:39:11;9.40;99.90
26107;DHT22;13866;50.748;12.630;2023-05-07T00:41:36;9.40;99.90
26107;DHT22;13866;50.748;12.630;2023-05-07T00:44:02;9.40;99.90
26107;DHT22;13866;50.748;12.630;2023-05-07T00:46:28;9.40;99.90
26107;DHT22;13866;50.748;12.630;2023-05-07T00:48:55;9.40;99.90
26107;DHT22;13866;50.748;12.630;2023-05-07T00:51:21;9.30;99.90
26107;DHT22;13866;50.748;12.630;2023-05-07T00:53:47;9.20;99.90
26107;DHT22;13866;50.748;12.630;2023-05-07T00:56:13;9.20;99.90
26107;DHT22;13866;50.748;12.630;2023-05-07T00:58:39;9.30;99.90
26107;DHT22;13866;50.748;12.630;2023-05-07T01:01:05;9.20;99.90
26107;DHT22;13866;50.748;12.630;2023-05-07T01:03:31;9.20;99.90
26107;DHT22;13866;50.748;12.630;2023-05-07T01:05:57;9.20;99.90
26107;DHT22;13866;50.748;12.630;2023-05-07T01:08:23;9.00;99.90
26107;DHT22;13866;50.748;12.630;2023-05-07T01:10:52;9.00;99.90
26107;DHT22;13866;50.748;12.630;2023-05-07T01:13:18;9.10;99.90
26107;DHT22;13866;50.748;12.630;2023-05-07T01:15:44;9.10;99.90
26107;DHT22;13866;50.748;12.630;2023-05-07T01:18:10;9.10;99.90
26107;DHT22;13866;50.748;12.630;2023-05-07T01:20:35;9.10;99.90
26107;DHT22;13866;50.748;12.630;2023-05-07T01:23:01;9.10;99.90
26107;DHT22;13866;50.748;12.630;2023-05-07T01:25:28;9.10;99.90
26107;DHT22;13866;50.748;12.630;2023-05-07T01:27:54;9.00;99.90
26107;DHT22;13866;50.748;12.630;2023-05-07T01:30:20;9.10;99.90
26107;DHT22;13866;50.748;12.630;2023-05-07T01:33:00;9.10;99.90
26107;DHT22;13866;50.748;12.630;2023-05-07T01:35:34;9.00;99.90
26107;DHT22;13866;50.748;12.630;2023-05-07T01:38:02;9.00;99.90
26107;DHT22;13866;50.748;12.630;2023-05-07T01:40:29;9.00;99.90
26107;DHT22;13866;50.748;12.630;2023-05-07T01:42:55;9.00;99.90
26107;DHT22;13866;50.748;12.630;2023-05-07T01:45:21;9.00;99.90
26107;DHT22;13866;50.748;12.630;2023-05-07T01:47:47;9.10;99.90
26107;DHT22;13866;50.748;12.630;2023-05-07T01:50:16;9.10;99.90
26107;DHT22;13866;50.748;12.630;2023-05-07T01:52:42;9.20;99.90
26107;DHT22;13866;50.748;12.630;2023-05-07T01:55:08;9.00;99.90
26107;DHT22;13866;50.748;12.630;2023-05-07T01:57:34;9.00;99.90
26107;DHT22;13866;50.748;12.630;2023-05-07T01:59:59;9.00;99.90
26107;DHT22;13866;50.748;12.630;2023-05-07T02:02:24;8.90;99.90
26107;DHT22;13866;50.748;12.630;2023-05-07T02:04:50;9.00;99.90
26107;DHT22;13866;50.748;12.630;2023-05-07T02:07:15;9.00;99.90
26107;DHT22;13866;50.748;12.630;2023-05-07T02:09:41;9.00;99.90
26107;DHT22;13866;50.748;12.630;2023-05-07T02:12:06;9.00;99.90
26107;DHT22;13866;50.748;12.630;2023-05-07T02:14:32;9.00;99.90
26107;DHT22;13866;50.748;12.630;2023-05-07T02:16:57;9.10;99.90
26107;DHT22;13866;50.748;12.630;2023-05-07T02:19:23;9.10;99.90
26107;DHT22;13866;50.748;12.630;2023-05-07T02:21:48;9.00;99.90
26107;DHT22;13866;50.748;12.630;2023-05-07T02:24:14;9.00;99.90
26107;DHT22;13866;50.748;12.630;2023-05-07T02:26:40;8.90;99.90
26107;DHT22;13866;50.748;12.630;2023-05-07T02:29:06;8.90;99.90
26107;DHT22;13866;50.748;12.630;2023-05-07T02:31:31;8.90;99.90
26107;DHT22;13866;50.748;12.630;2023-05-07T02:33:59;8.90;99.90
26107;DHT22;13866;50.748;12.630;2023-05-07T02:36:24;8.90;99.90
26107;DHT22;13866;50.748;12.630;2023-05-07T02:38:50;8.90;99.90
26107;DHT22;13866;50.748;12.630;2023-05-07T02:41:15;9.00;99.90
26107;DHT22;13866;50.748;12.630;2023-05-07T02:43:41;9.00;99.90
26107;DHT22;13866;50.748;12.630;2023-05-07T02:46:08;9.00;99.90
26107;DHT22;13866;50.748;12.630;2023-05-07T02:48:34;9.00;99.90
26107;DHT22;13866;50.748;12.630;2023-05-07T02:51:00;8.90;99.90
26107;DHT22;13866;50.748;12.630;2023-05-07T02:53:26;8.90;99.90
26107;DHT22;13866;50.748;12.630;2023-05-07T02:55:53;9.00;99.90
26107;DHT22;13866;50.748;12.630;2023-05-07T02:58:19;8.90;99.90
26107;DHT22;13866;50.748;12.630;2023-05-07T03:00:44;8.90;99.90
26107;DHT22;13866;50.748;12.630;2023-05-07T03:03:10;8.90;99.90
26107;DHT22;13866;50.748;12.630;2023-05-07T03:05:36;8.80;99.90
26107;DHT22;13866;50.748;12.630;2023-05-07T03:08:01;8.80;99.90
26107;DHT22;13866;50.748;12.630;2023-05-07T03:10:27;8.80;99.90
26107;DHT22;13866;50.748;12.630;2023-05-07T03:12:52;8.90;99.90
26107;DHT22;13866;50.748;12.630;2023-05-07T03:15:18;8.80;99.90
26107;DHT22;13866;50.748;12.630;2023-05-07T03:17:43;8.70;99.90
26107;DHT22;13866;50.748;12.630;2023-05-07T03:20:09;8.70;99.90
26107;DHT22;13866;50.748;12.630;2023-05-07T03:22:35;8.80;99.90
26107;DHT22;13866;50.748;12.630;2023-05-07T03:25:00;8.80;99.90
26107;DHT22;13866;50.748;12.630;2023-05-07T03:27:26;8.80;99.90
26107;DHT22;13866;50.748;12.630;2023-05-07T03:29:51;8.70;99.90
26107;DHT22;13866;50.748;12.630;2023-05-07T03:32:16;8.50;99.90
26107;DHT22;13866;50.748;12.630;2023-05-07T03:34:42;8.50;99.90
26107;DHT22;13866;50.748;12.630;2023-05-07T03:37:07;8.60;99.90
26107;DHT22;13866;50.748;12.630;2023-05-07T03:39:33;8.50;99.90
26107;DHT22;13866;50.748;12.630;2023-05-07T03:41:58;8.50;99.90
26107;DHT22;13866;50.748;12.630;2023-05-07T03:44:24;8.40;99.90
26107;DHT22;13866;50.748;12.630;2023-05-07T03:46:49;8.60;99.90
26107;DHT22;13866;50.748;12.630;2023-05-07T03:49:15;8.60;99.90
26107;DHT22;13866;50.748;12.630;2023-05-07T03:51:40;8.60;99.90
26107;DHT22;13866;50.748;12.630;2023-05-07T03:54:06;8.50;99.90
26107;DHT22;13866;50.748;12.630;2023-05-07T03:56:31;8.60;99.90
26107;DHT22;13866;50.748;12.630;2023-05-07T03:58:57;8.50;99.90
26107;DHT22;13866;50.748;12.630;2023-05-07T04:01:22;8.40;99.90
26107;DHT22;13866;50.748;12.630;2023-05-07T04:03:48;8.50;99.90
26107;DHT22;13866;50.748;12.630;2023-05-07T04:06:15;8.60;99.90
26107;DHT22;13866;50.748;12.630;2023-05-07T04:08:40;8.70;99.90
26107;DHT22;13866;50.748;12.630;2023-05-07T04:11:06;8.60;99.90
26107;DHT22;13866;50.748;12.630;2023-05-07T04:13:31;8.70;99.90
26107;DHT22;13866;50.748;12.630;2023-05-07T04:15:57;8.70;99.90
26107;DHT22;13866;50.748;12.630;2023-05-07T04:18:22;8.80;99.90
26107;DHT22;13866;50.748;12.630;2023-05-07T04:20:48;8.80;99.90
26107;DHT22;13866;50.748;12.630;2023-05-07T04:23:15;8.70;99.90
26107;DHT22;13866;50.748;12.630;2023-05-07T04:25:41;8.50;99.90
26107;DHT22;13866;50.748;12.630;2023-05-07T04:28:06;8.70;99.90
26107;DHT22;13866;50.748;12.630;2023-05-07T04:30:32;8.80;99.90
26107;DHT22;13866;50.748;12.630;2023-05-07T04:32:57;8.90;99.90
26107;DHT22;13866;50.748;12.630;2023-05-07T04:35:23;8.90;99.90
26107;DHT22;13866;50.748;12.630;2023-05-07T04:37:48;9.00;99.90
26107;DHT22;13866;50.748;12.630;2023-05-07T04:40:14;9.10;99.90
26107;DHT22;13866;50.748;12.630;2023-05-07T04:42:39;9.20;99.90
26107;DHT22;13866;50.748;12.630;2023-05-07T04:45:06;9.40;99.90
26107;DHT22;13866;50.748;12.630;2023-05-07T04:47:31;9.50;99.90
26107;DHT22;13866;50.748;12.630;2023-05-07T04:49:57;9.40;99.90
26107;DHT22;13866;50.748;12.630;2023-05-07T04:52:23;9.50;99.90
26107;DHT22;13866;50.748;12.630;2023-05-07T04:54:49;9.40;99.90
26107;DHT22;13866;50.748;12.630;2023-05-07T04:57:14;9.40;99.90
26107;DHT22;13866;50.748;12.630;2023-05-07T04:59:40;9.40;99.90
26107;DHT22;13866;50.748;12.630;2023-05-07T05:02:05;9.40;99.90
26107;DHT22;13866;50.748;12.630;2023-05-07T05:04:30;9.40;99.90
26107;DHT22;13866;50.748;12.630;2023-05-07T05:06:56;9.40;99.90
26107;DHT22;13866;50.748;12.630;2023-05-07T05:09:21;9.50;99.90
26107;DHT22;13866;50.748;12.630;2023-05-07T05:11:47;9.50;99.90
26107;DHT22;13866;50.748;12.630;2023-05-07T05:14:12;9.70;99.90
26107;DHT22;13866;50.748;12.630;2023-05-07T05:16:38;9.70;99.90
26107;DHT22;13866;50.748;12.630;2023-05-07T05:19:03;9.80;99.90
26107;DHT22;13866;50.748;12.630;2023-05-07T05:21:29;10.00;99.90
26107;DHT22;13866;50.748;12.630;2023-05-07T05:23:54;10.10;99.90
26107;DHT22;13866;50.748;12.630;2023-05-07T05:26:20;10.30;99.90
26107;DHT22;13866;50.748;12.630;2023-05-07T05:28:46;10.30;99.90
26107;DHT22;13866;50.748;12.630;2023-05-07T05:31:12;10.30;99.90
26107;DHT22;13866;50.748;12.630;2023-05-07T05:33:37;10.40;99.90
26107;DHT22;13866;50.748;12.630;2023-05-07T05:36:03;10.40;99.90
26107;DHT22;13866;50.748;12.630;2023-05-07T05:38:29;10.40;99.90
26107;DHT22;13866;50.748;12.630;2023-05-07T05:40:54;10.50;99.90
26107;DHT22;13866;50.748;12.630;2023-05-07T05:43:20;10.50;99.90
26107;DHT22;13866;50.748;12.630;2023-05-07T05:45:45;10.40;99.90
26107;DHT22;13866;50.748;12.630;2023-05-07T05:48:11;10.70;99.90
26107;DHT22;13866;50.748;12.630;2023-05-07T05:50:36;10.60;99.90
26107;DHT22;13866;50.748;12.630;2023-05-07T05:53:02;10.80;99.90
26107;DHT22;13866;50.748;12.630;2023-05-07T05:55:27;10.60;99.90
26107;DHT22;13866;50.748;12.630;2023-05-07T05:57:53;10.70;99.90
26107;DHT22;13866;50.748;12.630;2023-05-07T06:00:18;10.50;99.90
26107;DHT22;13866;50.748;12.630;2023-05-07T06:02:47;10.50;99.90
26107;DHT22;13866;50.748;12.630;2023-05-07T06:05:13;10.50;99.90
26107;DHT22;13866;50.748;12.630;2023-05-07T06:07:38;10.50;99.90
26107;DHT22;13866;50.748;12.630;2023-05-07T06:10:04;10.50;99.90
26107;DHT22;13866;50.748;12.630;2023-05-07T06:12:30;10.50;99.90
26107;DHT22;13866;50.748;12.630;2023-05-07T06:14:55;10.30;99.90
26107;DHT22;13866;50.748;12.630;2023-05-07T06:17:21;10.60;99.90
26107;DHT22;13866;50.748;12.630;2023-05-07T06:19:46;10.60;99.90
26107;DHT22;13866;50.748;12.630;2023-05-07T06:22:12;10.60;99.90
26107;DHT22;13866;50.748;12.630;2023-05-07T06:24:37;10.40;99.90
26107;DHT22;13866;50.748;12.630;2023-05-07T06:27:03;10.40;99.90
26107;DHT22;13866;50.748;12.630;2023-05-07T06:29:28;10.30;99.90
26107;DHT22;13866;50.748;12.630;2023-05-07T06:31:56;10.20;99.90
26107;DHT22;13866;50.748;12.630;2023-05-07T06:34:22;10.30;99.90
26107;DHT22;13866;50.748;12.630;2023-05-07T06:36:47;10.30;99.90
26107;DHT22;13866;50.748;12.630;2023-05-07T06:39:13;10.20;99.90
26107;DHT22;13866;50.748;12.630;2023-05-07T06:41:38;10.10;99.90
26107;DHT22;13866;50.748;12.630;2023-05-07T06:44:04;10.20;99.90
26107;DHT22;13866;50.748;12.630;2023-05-07T06:46:30;10.30;99.90
26107;DHT22;13866;50.748;12.630;2023-05-07T06:48:56;10.10;99.90
26107;DHT22;13866;50.748;12.630;2023-05-07T06:51:22;10.00;99.90
26107;DHT22;13866;50.748;12.630;2023-05-07T06:53:47;10.00;99.90
26107;DHT22;13866;50.748;12.630;2023-05-07T06:56:13;10.10;99.90
26107;DHT22;13866;50.748;12.630;2023-05-07T06:58:38;10.00;99.90
26107;DHT22;13866;50.748;12.630;2023-05-07T07:01:04;10.20;99.90
26107;DHT22;13866;50.748;12.630;2023-05-07T07:03:30;10.30;99.90
26107;DHT22;13866;50.748;12.630;2023-05-07T07:05:55;10.30;99.90
26107;DHT22;13866;50.748;12.630;2023-05-07T07:08:22;10.40;99.90
26107;DHT22;13866;50.748;12.630;2023-05-07T07:10:48;10.30;99.90
26107;DHT22;13866;50.748;12.630;2023-05-07T07:13:13;10.30;99.90
26107;DHT22;13866;50.748;12.630;2023-05-07T07:15:39;10.50;99.90
26107;DHT22;13866;50.748;12.630;2023-05-07T07:18:05;10.40;99.90
26107;DHT22;13866;50.748;12.630;2023-05-07T07:20:31;10.40;99.90
26107;DHT22;13866;50.748;12.630;2023-05-07T07:22:56;10.40;99.90
26107;DHT22;13866;50.748;12.630;2023-05-07T07:25:21;10.40;99.90
26107;DHT22;13866;50.748;12.630;2023-05-07T07:27:47;10.40;99.90
26107;DHT22;13866;50.748;12.630;2023-05-07T07:30:13;10.30;99.90
26107;DHT22;13866;50.748;12.630;2023-05-07T07:32:38;10.50;99.90
26107;DHT22;13866;50.748;12.630;2023-05-07T07:35:04;10.40;99.90
26107;DHT22;13866;50.748;12.630;2023-05-07T07:37:30;10.40;99.90
26107;DHT22;13866;50.748;12.630;2023-05-07T07:39:55;10.50;99.90
26107;DHT22;13866;50.748;12.630;2023-05-07T07:42:21;10.40;99.90
26107;DHT22;13866;50.748;12.630;2023-05-07T07:44:46;10.50;99.90
26107;DHT22;13866;50.748;12.630;2023-05-07T07:47:12;10.50;99.90
26107;DHT22;13866;50.748;12.630;2023-05-07T07:49:37;10.60;99.90
26107;DHT22;13866;50.748;12.630;2023-05-07T07:52:03;10.90;99.90
26107;DHT22;13866;50.748;12.630;2023-05-07T07:54:29;11.00;99.90
26107;DHT22;13866;50.748;12.630;2023-05-07T07:56:54;11.30;99.90
26107;DHT22;13866;50.748;12.630;2023-05-07T07:59:20;11.50;99.90
26107;DHT22;13866;50.748;12.630;2023-05-07T08:01:45;11.60;99.90
26107;DHT22;13866;50.748;12.630;2023-05-07T08:04:13;11.10;99.90
26107;DHT22;13866;50.748;12.630;2023-05-07T08:06:38;10.80;99.90
26107;DHT22;13866;50.748;12.630;2023-05-07T08:09:04;11.00;99.90
26107;DHT22;13866;50.748;12.630;2023-05-07T08:11:29;11.10;99.90
26107;DHT22;13866;50.748;12.630;2023-05-07T08:13:56;10.80;99.90
26107;DHT22;13866;50.748;12.630;2023-05-07T08:16:21;10.60;99.90
26107;DHT22;13866;50.748;12.630;2023-05-07T08:18:47;10.70;99.90
26107;DHT22;13866;50.748;12.630;2023-05-07T08:21:12;10.80;99.90
26107;DHT22;13866;50.748;12.630;2023-05-07T08:23:38;10.70;99.90
26107;DHT22;13866;50.748;12.630;2023-05-07T08:26:03;10.80;99.90
26107;DHT22;13866;50.748;12.630;2023-05-07T08:28:29;10.80;99.90
26107;DHT22;13866;50.748;12.630;2023-05-07T08:30:54;11.00;99.90
26107;DHT22;13866;50.748;12.630;2023-05-07T08:33:21;10.90;99.90
26107;DHT22;13866;50.748;12.630;2023-05-07T08:35:47;11.10;99.90
26107;DHT22;13866;50.748;12.630;2023-05-07T08:38:12;11.30;99.90
26107;DHT22;13866;50.748;12.630;2023-05-07T08:40:39;11.10;99.90
26107;DHT22;13866;50.748;12.630;2023-05-07T08:43:06;11.20;99.90
26107;DHT22;13866;50.748;12.630;2023-05-07T08:45:33;11.30;99.90
26107;DHT22;13866;50.748;12.630;2023-05-07T08:48:01;11.50;99.90
26107;DHT22;13866;50.748;12.630;2023-05-07T08:50:27;11.70;99.90
26107;DHT22;13866;50.748;12.630;2023-05-07T08:52:53;11.70;99.90
26107;DHT22;13866;50.748;12.630;2023-05-07T08:55:19;11.70;99.90
26107;DHT22;13866;50.748;12.630;2023-05-07T08:57:45;11.70;99.90
26107;DHT22;13866;50.748;12.630;2023-05-07T09:00:11;11.60;99.90
26107;DHT22;13866;50.748;12.630;2023-05-07T09:02:36;11.70;99.90
26107;DHT22;13866;50.748;12.630;2023-05-07T09:05:02;12.00;99.90
26107;DHT22;13866;50.748;12.630;2023-05-07T09:07:30;12.20;99.90
26107;DHT22;13866;50.748;12.630;2023-05-07T09:09:55;12.50;99.90
26107;DHT22;13866;50.748;12.630;2023-05-07T09:12:22;12.50;99.90
26107;DHT22;13866;50.748;12.630;2023-05-07T09:14:48;12.60;99.90
26107;DHT22;13866;50.748;12.630;2023-05-07T09:17:15;12.50;99.90
26107;DHT22;13866;50.748;12.630;2023-05-07T09:19:41;12.50;99.90
26107;DHT22;13866;50.748;12.630;2023-05-07T09:22:06;12.60;99.90
26107;DHT22;13866;50.748;12.630;2023-05-07T09:24:32;12.90;99.90
26107;DHT22;13866;50.748;12.630;2023-05-07T09:27:03;12.80;99.90
26107;DHT22;13866;50.748;12.630;2023-05-07T09:29:29;12.60;99.90
26107;DHT22;13866;50.748;12.630;2023-05-07T09:31:55;12.60;99.90
26107;DHT22;13866;50.748;12.630;2023-05-07T09:34:21;12.90;99.90
26107;DHT22;13866;50.748;12.630;2023-05-07T09:36:47;12.90;99.90
26107;DHT22;13866;50.748;12.630;2023-05-07T09:39:13;13.30;99.90
26107;DHT22;13866;50.748;12.630;2023-05-07T09:41:46;13.10;99.90
26107;DHT22;13866;50.748;12.630;2023-05-07T09:44:13;13.40;99.90
26107;DHT22;13866;50.748;12.630;2023-05-07T09:46:42;13.00;99.90
26107;DHT22;13866;50.748;12.630;2023-05-07T09:49:12;12.90;99.90
26107;DHT22;13866;50.748;12.630;2023-05-07T09:51:50;13.50;99.90
26107;DHT22;13866;50.748;12.630;2023-05-07T09:54:17;14.00;99.90
26107;DHT22;13866;50.748;12.630;2023-05-07T09:56:48;14.10;99.90
26107;DHT22;13866;50.748;12.630;2023-05-07T09:59:15;14.10;99.90
26107;DHT22;13866;50.748;12.630;2023-05-07T10:01:42;14.30;99.90
26107;DHT22;13866;50.748;12.630;2023-05-07T10:04:10;14.40;99.90
26107;DHT22;13866;50.748;12.630;2023-05-07T10:06:36;15.00;99.90
26107;DHT22;13866;50.748;12.630;2023-05-07T10:09:03;15.10;99.90
26107;DHT22;13866;50.748;12.630;2023-05-07T10:11:35;14.90;99.90
26107;DHT22;13866;50.748;12.630;2023-05-07T10:14:02;13.90;99.90
26107;DHT22;13866;50.748;12.630;2023-05-07T10:16:31;14.40;99.90
26107;DHT22;13866;50.748;12.630;2023-05-07T10:18:58;14.30;99.90
26107;DHT22;13866;50.748;12.630;2023-05-07T10:21:27;14.40;99.90
26107;DHT22;13866;50.748;12.630;2023-05-07T10:26:30;14.30;99.90
26107;DHT22;13866;50.748;12.630;2023-05-07T10:29:03;14.60;99.90
26107;DHT22;13866;50.748;12.630;2023-05-07T10:34:20;15.20;99.90
26107;DHT22;13866;50.748;12.630;2023-05-07T10:36:47;15.10;99.90
26107;DHT22;13866;50.748;12.630;2023-05-07T10:39:13;14.70;99.90
26107;DHT22;13866;50.748;12.630;2023-05-07T10:41:39;14.20;99.90
26107;DHT22;13866;50.748;12.630;2023-05-07T10:44:04;14.80;99.90
26107;DHT22;13866;50.748;12.630;2023-05-07T10:46:31;15.00;99.90
26107;DHT22;13866;50.748;12.630;2023-05-07T10:51:26;15.50;99.90
26107;DHT22;13866;50.748;12.630;2023-05-07T11:01:52;15.40;99.90
26107;DHT22;13866;50.748;12.630;2023-05-07T11:04:18;15.30;99.90
26107;DHT22;13866;50.748;12.630;2023-05-07T11:15:06;15.90;99.90
26107;DHT22;13866;50.748;12.630;2023-05-07T11:17:33;15.80;99.90
26107;DHT22;13866;50.748;12.630;2023-05-07T11:20:03;15.90;99.90
26107;DHT22;13866;50.748;12.630;2023-05-07T11:25:02;15.60;99.90
26107;DHT22;13866;50.748;12.630;2023-05-07T11:27:28;15.50;99.90
26107;DHT22;13866;50.748;12.630;2023-05-07T11:29:54;15.50;99.90
26107;DHT22;13866;50.748;12.630;2023-05-07T11:32:24;15.50;99.90
26107;DHT22;13866;50.748;12.630;2023-05-07T11:34:54;15.20;99.90
26107;DHT22;13866;50.748;12.630;2023-05-07T11:37:20;15.30;99.90
26107;DHT22;13866;50.748;12.630;2023-05-07T11:39:46;15.20;99.90
26107;DHT22;13866;50.748;12.630;2023-05-07T11:42:28;14.90;99.90
26107;DHT22;13866;50.748;12.630;2023-05-07T11:44:54;15.20;99.90
26107;DHT22;13866;50.748;12.630;2023-05-07T11:47:20;15.20;99.90
26107;DHT22;13866;50.748;12.630;2023-05-07T11:49:51;14.80;99.90
26107;DHT22;13866;50.748;12.630;2023-05-07T11:52:18;15.00;99.90
26107;DHT22;13866;50.748;12.630;2023-05-07T11:54:55;14.90;99.90
26107;DHT22;13866;50.748;12.630;2023-05-07T11:57:22;15.20;99.90
26107;DHT22;13866;50.748;12.630;2023-05-07T11:59:48;15.00;99.90
26107;DHT22;13866;50.748;12.630;2023-05-07T12:02:17;15.10;99.90
26107;DHT22;13866;50.748;12.630;2023-05-07T12:04:43;15.10;99.90
26107;DHT22;13866;50.748;12.630;2023-05-07T12:07:12;15.20;99.90
26107;DHT22;13866;50.748;12.630;2023-05-07T12:09:42;15.20;99.90
26107;DHT22;13866;50.748;12.630;2023-05-07T12:12:08;14.80;99.90
26107;DHT22;13866;50.748;12.630;2023-05-07T12:14:41;15.10;99.90
26107;DHT22;13866;50.748;12.630;2023-05-07T12:17:11;15.40;99.90
26107;DHT22;13866;50.748;12.630;2023-05-07T12:19:38;15.60;99.90
26107;DHT22;13866;50.748;12.630;2023-05-07T12:22:04;16.00;99.90
26107;DHT22;13866;50.748;12.630;2023-05-07T12:24:50;16.20;99.90
26107;DHT22;13866;50.748;12.630;2023-05-07T12:27:21;15.80;99.90
26107;DHT22;13866;50.748;12.630;2023-05-07T12:29:47;16.00;99.90
26107;DHT22;13866;50.748;12.630;2023-05-07T12:32:17;15.60;99.90
26107;DHT22;13866;50.748;12.630;2023-05-07T12:34:44;15.80;99.90
26107;DHT22;13866;50.748;12.630;2023-05-07T12:37:10;15.90;99.90
26107;DHT22;13866;50.748;12.630;2023-05-07T12:39:35;16.30;99.90
26107;DHT22;13866;50.748;12.630;2023-05-07T12:42:01;15.90;99.90
26107;DHT22;13866;50.748;12.630;2023-05-07T12:44:31;16.40;99.90
26107;DHT22;13866;50.748;12.630;2023-05-07T12:46:57;16.40;99.90
26107;DHT22;13866;50.748;12.630;2023-05-07T12:49:23;16.40;99.90
26107;DHT22;13866;50.748;12.630;2023-05-07T12:51:50;16.20;99.90
26107;DHT22;13866;50.748;12.630;2023-05-07T12:54:32;16.10;99.90
26107;DHT22;13866;50.748;12.630;2023-05-07T12:57:05;15.80;99.90
26107;DHT22;13866;50.748;12.630;2023-05-07T12:59:39;15.90;99.90
26107;DHT22;13866;50.748;12.630;2023-05-07T13:02:05;15.70;99.90
26107;DHT22;13866;50.748;12.630;2023-05-07T13:04:46;15.60;99.90
26107;DHT22;13866;50.748;12.630;2023-05-07T13:07:13;15.40;99.90
26107;DHT22;13866;50.748;12.630;2023-05-07T13:09:38;15.50;99.90
26107;DHT22;13866;50.748;12.630;2023-05-07T13:12:04;15.10;99.90
26107;DHT22;13866;50.748;12.630;2023-05-07T13:14:31;15.20;99.90
26107;DHT22;13866;50.748;12.630;2023-05-07T13:16:56;14.70;99.90
26107;DHT22;13866;50.748;12.630;2023-05-07T13:19:22;15.00;99.90
26107;DHT22;13866;50.748;12.630;2023-05-07T13:21:47;14.90;99.90
26107;DHT22;13866;50.748;12.630;2023-05-07T13:24:14;14.60;99.90
26107;DHT22;13866;50.748;12.630;2023-05-07T13:26:40;14.80;99.90
26107;DHT22;13866;50.748;12.630;2023-05-07T13:29:05;15.10;99.90
26107;DHT22;13866;50.748;12.630;2023-05-07T13:31:31;15.30;99.90
26107;DHT22;13866;50.748;12.630;2023-05-07T13:33:56;15.10;99.90
26107;DHT22;13866;50.748;12.630;2023-05-07T13:36:25;15.20;99.90
26107;DHT22;13866;50.748;12.630;2023-05-07T13:38:51;14.60;99.90
26107;DHT22;13866;50.748;12.630;2023-05-07T13:41:17;14.60;99.90
26107;DHT22;13866;50.748;12.630;2023-05-07T13:43:43;14.90;99.90
26107;DHT22;13866;50.748;12.630;2023-05-07T13:46:08;15.20;99.90
26107;DHT22;13866;50.748;12.630;2023-05-07T13:48:34;15.50;99.90
26107;DHT22;13866;50.748;12.630;2023-05-07T13:50:59;15.50;99.90
26107;DHT22;13866;50.748;12.630;2023-05-07T13:53:25;15.40;99.90
26107;DHT22;13866;50.748;12.630;2023-05-07T13:55:50;15.10;99.90
26107;DHT22;13866;50.748;12.630;2023-05-07T13:58:16;14.90;99.90
26107;DHT22;13866;50.748;12.630;2023-05-07T14:00:47;15.10;99.90
26107;DHT22;13866;50.748;12.630;2023-05-07T14:03:13;14.90;99.90
26107;DHT22;13866;50.748;12.630;2023-05-07T14:05:38;15.20;99.90
26107;DHT22;13866;50.748;12.630;2023-05-07T14:08:04;15.30;99.90
26107;DHT22;13866;50.748;12.630;2023-05-07T14:10:30;15.60;99.90
26107;DHT22;13866;50.748;12.630;2023-05-07T14:12:57;15.30;99.90
26107;DHT22;13866;50.748;12.630;2023-05-07T14:15:22;15.60;99.90
26107;DHT22;13866;50.748;12.630;2023-05-07T14:17:47;15.70;99.90
26107;DHT22;13866;50.748;12.630;2023-05-07T14:20:13;15.80;99.90
26107;DHT22;13866;50.748;12.630;2023-05-07T14:22:39;15.70;99.90
26107;DHT22;13866;50.748;12.630;2023-05-07T14:25:05;15.10;99.90
26107;DHT22;13866;50.748;12.630;2023-05-07T14:27:30;15.40;99.90
26107;DHT22;13866;50.748;12.630;2023-05-07T14:29:56;15.50;99.90
26107;DHT22;13866;50.748;12.630;2023-05-07T14:32:21;15.80;99.90
26107;DHT22;13866;50.748;12.630;2023-05-07T14:34:47;16.00;99.90
26107;DHT22;13866;50.748;12.630;2023-05-07T14:37:13;16.30;99.90
26107;DHT22;13866;50.748;12.630;2023-05-07T14:39:38;16.40;99.90
26107;DHT22;13866;50.748;12.630;2023-05-07T14:42:05;16.20;99.90
26107;DHT22;13866;50.748;12.630;2023-05-07T14:44:31;16.20;99.90
26107;DHT22;13866;50.748;12.630;2023-05-07T14:46:58;16.20;99.90
26107;DHT22;13866;50.748;12.630;2023-05-07T14:49:23;16.10;99.90
26107;DHT22;13866;50.748;12.630;2023-05-07T14:51:49;15.90;99.90
26107;DHT22;13866;50.748;12.630;2023-05-07T14:54:15;15.90;99.90
26107;DHT22;13866;50.748;12.630;2023-05-07T14:56:41;16.10;99.90
26107;DHT22;13866;50.748;12.630;2023-05-07T14:59:16;16.10;99.90
26107;DHT22;13866;50.748;12.630;2023-05-07T15:01:44;16.00;99.90
26107;DHT22;13866;50.748;12.630;2023-05-07T15:04:11;15.90;99.90
26107;DHT22;13866;50.748;12.630;2023-05-07T15:06:36;15.70;99.90
26107;DHT22;13866;50.748;12.630;2023-05-07T15:09:02;15.80;99.90
26107;DHT22;13866;50.748;12.630;2023-05-07T15:11:28;15.70;99.90
26107;DHT22;13866;50.748;12.630;2023-05-07T15:13:53;15.70;99.90
26107;DHT22;13866;50.748;12.630;2023-05-07T15:16:19;15.50;99.90
26107;DHT22;13866;50.748;12.630;2023-05-07T15:18:45;15.20;99.90
26107;DHT22;13866;50.748;12.630;2023-05-07T15:23:38;15.50;99.90
26107;DHT22;13866;50.748;12.630;2023-05-07T15:26:04;15.30;99.90
26107;DHT22;13866;50.748;12.630;2023-05-07T15:28:30;15.50;99.90
26107;DHT22;13866;50.748;12.630;2023-05-07T15:31:15;15.50;99.90
26107;DHT22;13866;50.748;12.630;2023-05-07T15:33:41;15.50;99.90
26107;DHT22;13866;50.748;12.630;2023-05-07T15:36:07;15.30;99.90
26107;DHT22;13866;50.748;12.630;2023-05-07T15:38:35;15.30;99.90
26107;DHT22;13866;50.748;12.630;2023-05-07T15:41:10;15.30;99.90
26107;DHT22;13866;50.748;12.630;2023-05-07T15:43:47;15.30;99.90